Voidomatis — A8FX2 — position and weather

sailwx.info

Track history (hours):
 
Tides and Currents Weather Stations Pressure Air Temp Water Temp Dewpoint Dewpoint Depression Visibility Wind Speed Wind Dir Waves Ship Positions

Voidomatis

Last reported at 2017-Oct-15 11:39 UTC. Time now 2017-Oct-18 20:39 UTC.
Position N 29°27' W 094°50'.

Length 214 m; draft 11.6 m.

Type: Tanker. MMSI: 636012508.

Date/timePositionNaut miles runAvg speedWind from/ knotsBaromVisibWave heightAir tempDewpointWater temp
2017-Oct-15 11:39N 29°27' W 094°50'3 8.4
2017-Oct-15 11:16N 29°30' W 094°52'2 8.5
2017-Oct-15 10:59N 29°32' W 094°53'4 8.9
2017-Oct-15 10:30N 29°35' W 094°56'4 8.9
2017-Oct-15 10:00N 29°39' W 094°58'4 7.2
2017-Oct-15 09:30N 29°42' W 095°01'3 5.4
2017-Oct-15 09:00N 29°44' W 095°03'3 4.1
2017-Oct-15 08:18N 29°45' W 095°06'2 5.3
2017-Oct-15 08:00N 29°44' W 095°08'3 5.0
2017-Oct-15 07:30N 29°45' W 095°11'1 0.0
2017-Oct-13 12:19N 29°45' W 095°12'0 0.0
2017-Oct-13 11:43N 29°45' W 095°12'0 0.0
2017-Oct-13 09:37N 29°45' W 095°12'0 0.0
2017-Oct-13 08:13N 29°45' W 095°12'0 0.0
2017-Oct-13 06:49N 29°45' W 095°12'0 0.0
2017-Oct-13 00:46N 29°45' W 095°12'0 0.0
2017-Oct-13 00:28N 29°45' W 095°12'0 0.0
2017-Oct-12 23:22N 29°45' W 095°12'0 0.0
2017-Oct-12 22:49N 29°45' W 095°12'0 0.0
2017-Oct-12 21:19N 29°45' W 095°12'0 0.0
2017-Oct-12 20:49N 29°45' W 095°12'0 0.0
2017-Oct-12 15:28N 29°45' W 095°12'0 0.0
2017-Oct-12 14:49N 29°45' W 095°12'0 0.0
2017-Oct-12 14:28N 29°45' W 095°12'0 0.0
2017-Oct-12 13:16N 29°45' W 095°12'0 0.0
2017-Oct-12 12:40N 29°45' W 095°12'0 0.0
2017-Oct-12 12:16N 29°45' W 095°12'0 0.0
2017-Oct-12 11:49N 29°45' W 095°12'0 0.0
2017-Oct-12 11:16N 29°45' W 095°12'0 0.0
2017-Oct-12 10:31N 29°45' W 095°12'0 0.0
2017-Oct-12 10:28N 29°45' W 095°12'0 0.0
2017-Oct-12 09:58N 29°45' W 095°12'0 0.0
2017-Oct-12 09:28N 29°45' W 095°12'0 0.0
2017-Oct-12 08:55N 29°45' W 095°12'0 0.0
2017-Oct-12 08:28N 29°45' W 095°12'0 0.0
2017-Oct-12 07:55N 29°45' W 095°12'0 0.0
2017-Oct-12 07:28N 29°45' W 095°12'0 0.0
2017-Oct-12 06:52N 29°45' W 095°12'0 0.0
2017-Oct-12 06:28N 29°45' W 095°12'0 0.0
2017-Oct-12 05:52N 29°45' W 095°12'0 0.0
2017-Oct-12 05:19N 29°45' W 095°12'0 0.0
2017-Oct-12 04:55N 29°45' W 095°12'0 0.0
2017-Oct-12 04:25N 29°44' W 095°12'0 0.0
2017-Oct-12 03:52N 29°45' W 095°12'0 0.0
2017-Oct-12 03:30N 29°45' W 095°12'0 0.1
2017-Oct-12 03:00N 29°44' W 095°12'3 5.5
2017-Oct-12 02:30N 29°44' W 095°09'3 6.3
2017-Oct-12 02:00N 29°45' W 095°06'4 7.2
2017-Oct-12 01:30N 29°44' W 095°02'4 7.9
2017-Oct-12 01:00N 29°41' W 094°59'510.8
2017-Oct-12 00:30N 29°36' W 094°57'611.0
2017-Oct-12 00:00N 29°31' W 094°53'611.2
2017-Oct-11 23:29N 29°26' W 094°50'  
2017-Oct-07 03:47N 29°39' W 093°20'3 9.4
2017-Oct-07 03:30N 29°42' W 093°20'5 9.9
2017-Oct-07 03:00N 29°47' W 093°21'4 8.2
2017-Oct-07 02:30N 29°51' W 093°21'5 9.1
2017-Oct-07 02:00N 29°55' W 093°20'4 8.9
2017-Oct-07 01:30N 29°60' W 093°20'5 7.5
2017-Oct-07 00:54N 30°04' W 093°20'4 6.7
2017-Oct-07 00:15N 30°09' W 093°20'0 1.4
2017-Oct-06 23:59N 30°09' W 093°20'1 1.1
2017-Oct-06 23:22N 30°10' W 093°20'0 0.0
2017-Oct-06 22:55N 30°10' W 093°20'0 0.0
2017-Oct-06 22:22N 30°10' W 093°20'0 0.0
2017-Oct-06 22:01N 30°10' W 093°20'0 0.0
2017-Oct-06 21:25N 30°10' W 093°20'0 0.0
2017-Oct-06 21:01N 30°10' W 093°20'0 0.0
2017-Oct-06 20:31N 30°10' W 093°20'0 0.0
2017-Oct-06 20:01N 30°10' W 093°20'0 0.0
2017-Oct-06 19:31N 30°10' W 093°20'0 0.0
2017-Oct-06 19:01N 30°10' W 093°20'0 0.0
2017-Oct-06 18:28N 30°10' W 093°20'0 0.0
2017-Oct-06 17:58N 30°10' W 093°20'0 0.0
2017-Oct-06 17:28N 30°10' W 093°20'0 0.0
2017-Oct-06 16:58N 30°10' W 093°20'0 0.0
2017-Oct-06 16:28N 30°10' W 093°20'0 0.0
2017-Oct-06 15:58N 30°10' W 093°20'0 0.0
2017-Oct-06 15:28N 30°10' W 093°20'0 0.0
2017-Oct-06 14:58N 30°10' W 093°20'0 0.0
2017-Oct-06 14:28N 30°10' W 093°20'0 0.0
2017-Oct-06 11:04N 30°10' W 093°20'0 0.0
2017-Oct-06 10:04N 30°10' W 093°20'0 0.0
2017-Oct-06 05:00N 30°10' W 093°20'1 2.8
2017-Oct-06 04:28N 30°08' W 093°20'3 6.0
2017-Oct-06 03:53N 30°05' W 093°20'3 8.2
2017-Oct-06 03:29N 30°01' W 093°20'6 8.2
2017-Oct-06 02:48N 29°56' W 093°20'3 8.5
2017-Oct-06 02:30N 29°53' W 093°21'4 7.8
2017-Oct-06 02:00N 29°49' W 093°21'3 7.0
2017-Oct-06 01:30N 29°46' W 093°21'  
Track history (hours):
 
Tides and Currents Weather Stations Pressure Air Temp Water Temp Dewpoint Dewpoint Depression Visibility Wind Speed Wind Dir Waves Ship Positions

Voidomatis

Last reported at 2017-Oct-15 11:39 UTC. Time now 2017-Oct-18 20:39 UTC.
Position N 29°27' W 094°50'.

Length 214 m; draft 11.6 m.

Type: Tanker. MMSI: 636012508.

Date/timePositionNaut miles runAvg speedWind from/ knotsBaromVisibWave heightAir tempDewpointWater temp
2017-Oct-15 11:39N 29°27' W 094°50'3 8.4
2017-Oct-15 11:16N 29°30' W 094°52'2 8.5
2017-Oct-15 10:59N 29°32' W 094°53'4 8.9
2017-Oct-15 10:30N 29°35' W 094°56'4 8.9
2017-Oct-15 10:00N 29°39' W 094°58'4 7.2
2017-Oct-15 09:30N 29°42' W 095°01'3 5.4
2017-Oct-15 09:00N 29°44' W 095°03'3 4.1
2017-Oct-15 08:18N 29°45' W 095°06'2 5.3
2017-Oct-15 08:00N 29°44' W 095°08'3 5.0
2017-Oct-15 07:30N 29°45' W 095°11'1 0.0
2017-Oct-13 12:19N 29°45' W 095°12'0 0.0
2017-Oct-13 11:43N 29°45' W 095°12'0 0.0
2017-Oct-13 09:37N 29°45' W 095°12'0 0.0
2017-Oct-13 08:13N 29°45' W 095°12'0 0.0
2017-Oct-13 06:49N 29°45' W 095°12'0 0.0
2017-Oct-13 00:46N 29°45' W 095°12'0 0.0
2017-Oct-13 00:28N 29°45' W 095°12'0 0.0
2017-Oct-12 23:22N 29°45' W 095°12'0 0.0
2017-Oct-12 22:49N 29°45' W 095°12'0 0.0
2017-Oct-12 21:19N 29°45' W 095°12'0 0.0
2017-Oct-12 20:49N 29°45' W 095°12'0 0.0
2017-Oct-12 15:28N 29°45' W 095°12'0 0.0
2017-Oct-12 14:49N 29°45' W 095°12'0 0.0
2017-Oct-12 14:28N 29°45' W 095°12'0 0.0
2017-Oct-12 13:16N 29°45' W 095°12'0 0.0
2017-Oct-12 12:40N 29°45' W 095°12'0 0.0
2017-Oct-12 12:16N 29°45' W 095°12'0 0.0
2017-Oct-12 11:49N 29°45' W 095°12'0 0.0
2017-Oct-12 11:16N 29°45' W 095°12'0 0.0
2017-Oct-12 10:31N 29°45' W 095°12'0 0.0
2017-Oct-12 10:28N 29°45' W 095°12'0 0.0
2017-Oct-12 09:58N 29°45' W 095°12'0 0.0
2017-Oct-12 09:28N 29°45' W 095°12'0 0.0
2017-Oct-12 08:55N 29°45' W 095°12'0 0.0
2017-Oct-12 08:28N 29°45' W 095°12'0 0.0
2017-Oct-12 07:55N 29°45' W 095°12'0 0.0
2017-Oct-12 07:28N 29°45' W 095°12'0 0.0
2017-Oct-12 06:52N 29°45' W 095°12'0 0.0
2017-Oct-12 06:28N 29°45' W 095°12'0 0.0
2017-Oct-12 05:52N 29°45' W 095°12'0 0.0
2017-Oct-12 05:19N 29°45' W 095°12'0 0.0
2017-Oct-12 04:55N 29°45' W 095°12'0 0.0
2017-Oct-12 04:25N 29°44' W 095°12'0 0.0
2017-Oct-12 03:52N 29°45' W 095°12'0 0.0
2017-Oct-12 03:30N 29°45' W 095°12'0 0.1
2017-Oct-12 03:00N 29°44' W 095°12'3 5.5
2017-Oct-12 02:30N 29°44' W 095°09'3 6.3
2017-Oct-12 02:00N 29°45' W 095°06'4 7.2
2017-Oct-12 01:30N 29°44' W 095°02'4 7.9
2017-Oct-12 01:00N 29°41' W 094°59'510.8
2017-Oct-12 00:30N 29°36' W 094°57'611.0
2017-Oct-12 00:00N 29°31' W 094°53'611.2
2017-Oct-11 23:29N 29°26' W 094°50'  
2017-Oct-07 03:47N 29°39' W 093°20'3 9.4
2017-Oct-07 03:30N 29°42' W 093°20'5 9.9
2017-Oct-07 03:00N 29°47' W 093°21'4 8.2
2017-Oct-07 02:30N 29°51' W 093°21'5 9.1
2017-Oct-07 02:00N 29°55' W 093°20'4 8.9
2017-Oct-07 01:30N 29°60' W 093°20'5 7.5
2017-Oct-07 00:54N 30°04' W 093°20'4 6.7
2017-Oct-07 00:15N 30°09' W 093°20'0 1.4
2017-Oct-06 23:59N 30°09' W 093°20'1 1.1
2017-Oct-06 23:22N 30°10' W 093°20'0 0.0
2017-Oct-06 22:55N 30°10' W 093°20'0 0.0
2017-Oct-06 22:22N 30°10' W 093°20'0 0.0
2017-Oct-06 22:01N 30°10' W 093°20'0 0.0
2017-Oct-06 21:25N 30°10' W 093°20'0 0.0
2017-Oct-06 21:01N 30°10' W 093°20'0 0.0
2017-Oct-06 20:31N 30°10' W 093°20'0 0.0
2017-Oct-06 20:01N 30°10' W 093°20'0 0.0
2017-Oct-06 19:31N 30°10' W 093°20'0 0.0
2017-Oct-06 19:01N 30°10' W 093°20'0 0.0
2017-Oct-06 18:28N 30°10' W 093°20'0 0.0
2017-Oct-06 17:58N 30°10' W 093°20'0 0.0
2017-Oct-06 17:28N 30°10' W 093°20'0 0.0
2017-Oct-06 16:58N 30°10' W 093°20'0 0.0
2017-Oct-06 16:28N 30°10' W 093°20'0 0.0
2017-Oct-06 15:58N 30°10' W 093°20'0 0.0
2017-Oct-06 15:28N 30°10' W 093°20'0 0.0
2017-Oct-06 14:58N 30°10' W 093°20'0 0.0
2017-Oct-06 14:28N 30°10' W 093°20'0 0.0
2017-Oct-06 11:04N 30°10' W 093°20'0 0.0
2017-Oct-06 10:04N 30°10' W 093°20'0 0.0
2017-Oct-06 05:00N 30°10' W 093°20'1 2.8
2017-Oct-06 04:28N 30°08' W 093°20'3 6.0
2017-Oct-06 03:53N 30°05' W 093°20'3 8.2
2017-Oct-06 03:29N 30°01' W 093°20'6 8.2
2017-Oct-06 02:48N 29°56' W 093°20'3 8.5
2017-Oct-06 02:30N 29°53' W 093°21'4 7.8
2017-Oct-06 02:00N 29°49' W 093°21'3 7.0
2017-Oct-06 01:30N 29°46' W 093°21'  

Dump ship's entire track history